Time;durP1;ratioP1;P1;durP2;ratioP2;P2;SDS_P1;SDS_P2;PMS_P1;PMS_P2;Temp;Humidity;BMP_temperature;BMP_pressure;BME280_temperature;BME280_humidity;BME280_pressure;Samples;Min_cycle;Max_cycle;Signal;HPM_P1;HPM_P2
2022/03/15 00:00:28;;;;;;;6.57;2.67;;;8.70;61.60;;;;;;7376176;19;20173;-74
2022/03/15 00:02:58;;;;;;;6.57;3.85;;;8.70;61.90;;;;;;7368007;19;20143;-72
2022/03/15 00:05:27;;;;;;;5.07;2.90;;;8.70;62.00;;;;;;7369236;19;20631;-74
2022/03/15 00:08:07;;;;;;;4.25;2.40;;;8.70;62.40;;;;;;7374363;19;20488;-73
2022/03/15 00:10:37;;;;;;;4.30;2.55;;;8.70;62.40;;;;;;7372857;19;20179;-75
2022/03/15 00:13:07;;;;;;;3.97;2.72;;;8.70;62.20;;;;;;7375557;19;20182;-75
2022/03/15 00:15:39;;;;;;;6.32;3.10;;;8.60;62.60;;;;;;7373143;19;21017;-75
2022/03/15 00:18:09;;;;;;;4.35;3.17;;;8.60;62.20;;;;;;7372265;19;20226;-76
2022/03/15 00:20:41;;;;;;;4.32;2.70;;;8.80;61.80;;;;;;7376813;19;22546;-75
2022/03/15 00:23:13;;;;;;;6.10;2.97;;;8.80;61.90;;;;;;7373571;19;21365;-76
2022/03/15 00:25:42;;;;;;;11.25;3.55;;;8.80;61.60;;;;;;7373536;19;20530;-75
2022/03/15 00:28:12;;;;;;;5.00;2.75;;;8.80;61.60;;;;;;7369626;19;20136;-75
2022/03/15 00:30:41;;;;;;;5.00;3.00;;;8.80;61.60;;;;;;7362981;19;20149;-74
2022/03/15 00:33:12;;;;;;;3.40;3.10;;;8.90;61.30;;;;;;7373327;19;20677;-77
2022/03/15 00:35:41;;;;;;;6.03;3.17;;;8.90;61.20;;;;;;7367000;19;21351;-75
2022/03/15 00:38:13;;;;;;;4.78;2.63;;;8.90;61.30;;;;;;7370216;19;20151;-75
2022/03/15 00:40:45;;;;;;;3.53;2.63;;;8.70;61.60;;;;;;7373197;19;20185;-74
2022/03/15 00:43:18;;;;;;;3.47;2.70;;;8.60;62.60;;;;;;7372226;19;20636;-74
2022/03/15 00:45:48;;;;;;;4.13;2.60;;;8.50;63.30;;;;;;7370880;19;20147;-75
2022/03/15 00:48:18;;;;;;;7.10;2.55;;;8.50;63.20;;;;;;7374083;19;20143;-76
2022/03/15 00:50:52;;;;;;;3.90;2.65;;;8.60;62.90;;;;;;7373016;19;20138;-75
2022/03/15 00:53:25;;;;;;;2.95;1.90;;;8.50;63.00;;;;;;7375747;19;20156;-74
2022/03/15 00:55:54;;;;;;;3.00;2.28;;;8.60;62.90;;;;;;7375221;19;20139;-74
2022/03/15 00:58:26;;;;;;;4.80;2.85;;;8.70;62.30;;;;;;7372712;19;20252;-75
2022/03/15 01:00:58;;;;;;;3.25;2.20;;;8.70;62.20;;;;;;7372251;19;20139;-75
2022/03/15 01:03:27;;;;;;;3.70;2.40;;;8.70;62.70;;;;;;7370879;19;21066;-75
2022/03/15 01:05:58;;;;;;;3.97;2.58;;;8.60;62.80;;;;;;7370767;19;20146;-75
2022/03/15 01:08:32;;;;;;;3.50;2.42;;;8.60;63.00;;;;;;7368480;19;20138;-73
2022/03/15 01:11:06;;;;;;;5.38;2.40;;;8.60;62.80;;;;;;7399375;19;20138;-74
2022/03/15 01:13:35;;;;;;;3.15;2.47;;;8.50;63.20;;;;;;7407321;19;20681;-75
2022/03/15 01:16:06;;;;;;;11.55;3.00;;;8.50;63.60;;;;;;7408741;19;20140;-74
2022/03/15 01:18:38;;;;;;;5.03;3.15;;;8.50;63.10;;;;;;7402312;19;20167;-74
2022/03/15 01:21:08;;;;;;;4.35;2.85;;;8.50;63.40;;;;;;7404639;19;20156;-75
2022/03/15 01:23:42;;;;;;;5.82;2.90;;;8.50;63.80;;;;;;7407780;19;20128;-75
2022/03/15 01:26:12;;;;;;;6.82;2.95;;;8.50;63.20;;;;;;7407504;19;20139;-74
2022/03/15 01:28:42;;;;;;;3.97;3.05;;;8.50;62.80;;;;;;7403950;19;20128;-75
2022/03/15 01:31:12;;;;;;;4.03;2.47;;;8.60;62.80;;;;;;7407994;19;20218;-75
2022/03/15 01:33:42;;;;;;;6.30;3.90;;;8.50;62.90;;;;;;7411823;19;20136;-75
2022/03/15 01:36:14;;;;;;;5.15;2.95;;;8.60;63.00;;;;;;7412819;19;20143;-75
2022/03/15 01:38:50;;;;;;;8.23;3.03;;;8.60;63.10;;;;;;7414433;19;20203;-76
2022/03/15 01:41:21;;;;;;;3.58;2.78;;;8.50;63.30;;;;;;7419421;19;20164;-74
2022/03/15 01:43:50;;;;;;;3.38;2.55;;;8.50;63.60;;;;;;7420528;19;20135;-76
2022/03/15 01:46:20;;;;;;;5.00;3.15;;;8.40;63.80;;;;;;7410226;19;20152;-74
2022/03/15 01:48:49;;;;;;;4.72;2.63;;;8.40;64.00;;;;;;7412345;19;20124;-74
2022/03/15 01:51:19;;;;;;;4.22;2.60;;;8.40;63.90;;;;;;7417451;19;20168;-74
2022/03/15 01:53:54;;;;;;;3.13;2.28;;;8.40;63.70;;;;;;7415970;19;20135;-74
2022/03/15 01:56:23;;;;;;;5.70;2.63;;;8.50;63.60;;;;;;7422930;19;20168;-75
2022/03/15 01:58:54;;;;;;;3.80;2.80;;;8.50;63.80;;;;;;7416995;19;20982;-75
2022/03/15 02:01:24;;;;;;;3.95;2.55;;;8.40;63.70;;;;;;7411653;19;20132;-75
2022/03/15 02:03:53;;;;;;;4.30;2.60;;;8.30;64.00;;;;;;7411738;19;20132;-76
2022/03/15 02:06:23;;;;;;;5.38;2.55;;;8.30;64.20;;;;;;7416415;19;20124;-75
2022/03/15 02:08:55;;;;;;;4.32;2.58;;;8.30;64.40;;;;;;7421847;19;20136;-77
2022/03/15 02:11:28;;;;;;;5.65;2.13;;;8.30;64.30;;;;;;7411990;19;20139;-73
2022/03/15 02:13:58;;;;;;;3.25;2.42;;;8.40;64.00;;;;;;7414342;19;20156;-73
2022/03/15 02:16:27;;;;;;;2.10;1.80;;;8.40;64.00;;;;;;7406160;19;20159;-73
2022/03/15 02:18:58;;;;;;;13.68;3.83;;;8.30;64.60;;;;;;7408758;19;20127;-73
2022/03/15 02:21:31;;;;;;;3.10;2.58;;;8.30;64.80;;;;;;7411023;19;20135;-73
2022/03/15 02:24:00;;;;;;;5.68;2.65;;;8.20;64.80;;;;;;7413026;19;20136;-73
2022/03/15 02:26:30;;;;;;;4.45;2.90;;;8.30;64.70;;;;;;7414162;19;20123;-73
2022/03/15 02:29:02;;;;;;;4.50;2.53;;;8.30;64.70;;;;;;7417263;19;20143;-74
2022/03/15 02:31:31;;;;;;;7.00;2.97;;;8.30;64.70;;;;;;7423097;19;20604;-74
2022/03/15 02:34:03;;;;;;;8.95;2.83;;;8.30;64.00;;;;;;7418017;19;20131;-74
2022/03/15 02:36:35;;;;;;;4.22;2.78;;;8.30;64.00;;;;;;7422893;19;20116;-74
2022/03/15 02:39:07;;;;;;;5.00;2.80;;;8.40;64.00;;;;;;7396113;19;20138;-74
2022/03/15 02:41:36;;;;;;;4.55;2.63;;;8.40;64.10;;;;;;7393258;19;20202;-74
2022/03/15 02:44:07;;;;;;;4.00;2.38;;;8.40;64.10;;;;;;7393393;19;20150;-74
2022/03/15 02:46:39;;;;;;;5.05;2.42;;;8.40;64.20;;;;;;7391654;19;20169;-74
2022/03/15 02:49:14;;;;;;;3.72;2.33;;;8.50;64.20;;;;;;7395188;19;20135;-74
2022/03/15 02:51:48;;;;;;;4.35;2.90;;;8.50;64.30;;;;;;7390810;19;20143;-74
2022/03/15 02:54:19;;;;;;;4.03;2.30;;;8.40;64.50;;;;;;7391225;19;20204;-74
2022/03/15 02:56:50;;;;;;;5.43;2.60;;;8.30;64.20;;;;;;7394838;19;20123;-74
2022/03/15 02:59:20;;;;;;;3.80;2.80;;;8.30;64.60;;;;;;7396001;19;20143;-74
2022/03/15 03:01:52;;;;;;;5.13;3.00;;;8.20;65.00;;;;;;7395581;19;20136;-74
2022/03/15 03:04:24;;;;;;;3.75;2.67;;;8.20;65.30;;;;;;7391218;19;20148;-74
2022/03/15 03:06:56;;;;;;;4.43;2.85;;;8.20;65.40;;;;;;7391408;19;20150;-74
2022/03/15 03:09:25;;;;;;;3.63;2.70;;;8.30;64.80;;;;;;7385339;19;20147;-74
2022/03/15 03:11:55;;;;;;;2.97;2.40;;;8.30;64.60;;;;;;7382683;19;20261;-74
2022/03/15 03:14:24;;;;;;;4.95;2.28;;;8.30;64.80;;;;;;7379332;19;20550;-73
2022/03/15 03:16:54;;;;;;;3.75;2.40;;;8.30;64.90;;;;;;7382942;19;20172;-74
2022/03/15 03:19:23;;;;;;;6.50;2.60;;;8.20;64.80;;;;;;7378065;19;21263;-75
2022/03/15 03:21:55;;;;;;;3.60;2.50;;;8.20;64.40;;;;;;7380546;19;20178;-76
2022/03/15 03:24:25;;;;;;;6.20;3.30;;;8.30;64.80;;;;;;7383829;19;20575;-76
2022/03/15 03:26:55;;;;;;;3.88;2.75;;;8.20;64.80;;;;;;7384527;19;20156;-76
2022/03/15 03:29:26;;;;;;;3.88;2.63;;;8.10;65.20;;;;;;7381040;19;20954;-76
2022/03/15 03:31:55;;;;;;;6.10;2.75;;;8.20;66.00;;;;;;7382309;19;20496;-76
2022/03/15 03:34:25;;;;;;;6.72;2.67;;;8.30;65.00;;;;;;7381798;19;20127;-75
2022/03/15 03:36:57;;;;;;;3.90;2.75;;;8.20;64.80;;;;;;7381714;19;20143;-76
2022/03/15 03:39:29;;;;;;;7.20;3.45;;;8.20;64.50;;;;;;7382940;19;20163;-76
2022/03/15 03:41:59;;;;;;;2.80;2.25;;;8.20;64.80;;;;;;7379267;19;20161;-76
2022/03/15 03:44:28;;;;;;;4.65;3.00;;;8.20;64.40;;;;;;7379692;19;20242;-75
2022/03/15 03:46:57;;;;;;;4.75;2.97;;;8.30;64.60;;;;;;7375199;19;20199;-76
2022/03/15 03:49:32;;;;;;;7.40;2.95;;;8.20;64.60;;;;;;7376695;19;21212;-74
2022/03/15 03:52:05;;;;;;;6.07;3.20;;;8.20;65.20;;;;;;7376962;19;20147;-74
2022/03/15 03:54:35;;;;;;;4.93;2.53;;;8.30;65.20;;;;;;7377201;19;20581;-74
2022/03/15 03:57:05;;;;;;;3.70;2.70;;;8.20;64.50;;;;;;7377220;19;20251;-74
2022/03/15 03:59:34;;;;;;;6.05;2.45;;;8.20;64.60;;;;;;7377154;19;20139;-74
2022/03/15 04:02:04;;;;;;;4.60;2.35;;;8.10;64.80;;;;;;7373374;19;20191;-74
2022/03/15 04:04:36;;;;;;;3.50;3.20;;;8.10;65.10;;;;;;7377826;19;20137;-73
2022/03/15 04:07:11;;;;;;;7.75;3.00;;;8.10;65.40;;;;;;7375188;19;20143;-74
2022/03/15 04:09:41;;;;;;;5.30;2.65;;;8.10;65.40;;;;;;7376013;19;20155;-74
2022/03/15 04:12:11;;;;;;;4.70;2.45;;;8.10;66.00;;;;;;7375744;19;20139;-74
2022/03/15 04:14:40;;;;;;;6.10;3.42;;;8.10;65.90;;;;;;7372600;19;20864;-74
2022/03/15 04:17:15;;;;;;;5.25;2.78;;;8.20;65.80;;;;;;7378466;19;20175;-75
2022/03/15 04:19:44;;;;;;;5.65;2.80;;;8.20;65.80;;;;;;7372221;19;21436;-77
2022/03/15 04:22:17;;;;;;;3.75;2.60;;;8.10;66.00;;;;;;7377791;19;20244;-75
2022/03/15 04:24:46;;;;;;;4.95;2.90;;;8.10;66.00;;;;;;7378679;19;20481;-76
2022/03/15 04:27:18;;;;;;;3.65;2.58;;;8.00;66.40;;;;;;7375376;19;20139;-76
2022/03/15 04:29:48;;;;;;;7.68;3.17;;;8.00;66.10;;;;;;7376356;19;20139;-76
2022/03/15 04:32:18;;;;;;;7.38;2.53;;;8.00;66.00;;;;;;7378749;19;20184;-76
2022/03/15 04:34:50;;;;;;;3.28;2.90;;;8.00;66.00;;;;;;7377557;19;20149;-76
2022/03/15 04:37:23;;;;;;;3.88;2.60;;;8.00;66.00;;;;;;7376941;19;20610;-76
2022/03/15 04:39:56;;;;;;;3.88;2.20;;;8.10;65.90;;;;;;7376614;19;20142;-76
2022/03/15 04:42:25;;;;;;;6.70;2.30;;;8.10;65.60;;;;;;7377572;19;20147;-76
2022/03/15 04:44:55;;;;;;;4.32;2.45;;;8.10;65.20;;;;;;7376451;19;20254;-76
2022/03/15 04:47:26;;;;;;;6.40;2.75;;;8.10;65.80;;;;;;7369281;19;20255;-76
2022/03/15 04:49:58;;;;;;;3.80;2.88;;;8.10;65.30;;;;;;7372328;19;20239;-76
2022/03/15 04:52:30;;;;;;;5.47;2.58;;;8.10;65.20;;;;;;7374445;19;20136;-78
2022/03/15 04:55:00;;;;;;;4.93;2.85;;;8.10;65.60;;;;;;7375636;19;20136;-76
2022/03/15 04:57:29;;;;;;;4.10;1.95;;;8.00;65.80;;;;;;7373909;19;20142;-75
2022/03/15 04:59:59;;;;;;;3.25;2.08;;;8.00;65.80;;;;;;7373730;19;20131;-76
2022/03/15 05:02:29;;;;;;;3.80;2.70;;;7.90;66.90;;;;;;7368039;19;21087;-76
2022/03/15 05:05:00;;;;;;;5.60;2.92;;;7.90;66.20;;;;;;7371030;19;20144;-76
2022/03/15 05:07:33;;;;;;;3.47;2.67;;;7.90;65.80;;;;;;7369492;19;20155;-76
2022/03/15 05:12:45;;;;;;;3.58;2.13;;;8.10;65.20;;;;;;7375462;19;20135;-76
2022/03/15 05:15:17;;;;;;;4.97;2.70;;;8.10;64.90;;;;;;7368661;19;20228;-77
2022/03/15 05:17:49;;;;;;;3.42;2.30;;;8.10;64.90;;;;;;7372246;19;20142;-75
2022/03/15 05:20:18;;;;;;;4.30;2.22;;;8.20;65.00;;;;;;7361285;19;20160;-76
2022/03/15 05:22:51;;;;;;;3.63;2.42;;;8.20;65.00;;;;;;7357544;19;20206;-75
2022/03/15 05:25:22;;;;;;;3.15;2.47;;;8.20;64.70;;;;;;7396426;19;20160;-75
2022/03/15 05:27:52;;;;;;;4.53;2.50;;;8.20;64.80;;;;;;7393196;19;20139;-75
2022/03/15 05:30:22;;;;;;;3.70;2.80;;;8.10;65.00;;;;;;7394799;19;20143;-74
2022/03/15 05:32:51;;;;;;;4.15;2.55;;;8.00;64.10;;;;;;7395847;19;20131;-74
2022/03/15 05:35:21;;;;;;;4.82;2.53;;;8.00;64.00;;;;;;7399110;19;20217;-75
2022/03/15 05:37:53;;;;;;;6.03;3.15;;;8.00;64.10;;;;;;7395734;19;20134;-75
2022/03/15 05:40:23;;;;;;;4.38;2.17;;;7.90;64.60;;;;;;7396772;19;20327;-75
2022/03/15 05:42:54;;;;;;;4.53;3.40;;;8.00;64.70;;;;;;7396904;19;20172;-75
2022/03/15 05:45:24;;;;;;;5.72;2.50;;;8.10;64.30;;;;;;7392060;19;20131;-75
2022/03/15 05:47:54;;;;;;;3.28;2.22;;;8.10;63.80;;;;;;7389413;19;20207;-75
2022/03/15 05:50:24;;;;;;;3.92;2.40;;;8.20;63.70;;;;;;7392370;19;20124;-76
2022/03/15 05:52:56;;;;;;;6.07;2.63;;;8.20;64.00;;;;;;7396116;19;20153;-75
2022/03/15 05:55:26;;;;;;;6.38;2.72;;;8.20;64.10;;;;;;7396879;19;20351;-75
2022/03/15 05:57:55;;;;;;;8.63;3.10;;;8.20;64.10;;;;;;7396133;19;20155;-76
2022/03/15 06:00:24;;;;;;;5.65;2.60;;;8.10;64.00;;;;;;7393234;19;20142;-76
2022/03/15 06:02:54;;;;;;;4.65;2.70;;;8.10;64.60;;;;;;7395359;19;21134;-76
2022/03/15 06:05:24;;;;;;;5.32;3.03;;;8.10;65.10;;;;;;7395585;19;20307;-75
2022/03/15 06:07:56;;;;;;;5.05;3.05;;;8.10;65.20;;;;;;7389121;19;20157;-76
2022/03/15 06:10:28;;;;;;;7.22;3.60;;;8.10;64.70;;;;;;7390961;19;20178;-75
2022/03/15 06:12:59;;;;;;;7.80;2.88;;;8.00;64.40;;;;;;7384829;19;20128;-75
2022/03/15 06:15:29;;;;;;;6.35;3.00;;;8.10;64.70;;;;;;7391054;19;20127;-75
2022/03/15 06:18:01;;;;;;;5.97;2.60;;;8.20;64.90;;;;;;7391389;19;20380;-73
2022/03/15 06:20:31;;;;;;;4.85;2.60;;;8.30;64.80;;;;;;7386637;19;20128;-77
2022/03/15 06:23:04;;;;;;;8.00;3.22;;;8.40;64.30;;;;;;7386180;19;20186;-76
2022/03/15 06:25:34;;;;;;;9.35;3.17;;;8.60;63.70;;;;;;7394715;19;20124;-77
2022/03/15 06:28:04;;;;;;;6.38;3.47;;;8.60;62.30;;;;;;7393114;19;20131;-75
2022/03/15 06:30:33;;;;;;;7.88;4.15;;;8.70;62.70;;;;;;7394261;19;20224;-76
2022/03/15 06:33:06;;;;;;;8.07;4.45;;;8.80;62.60;;;;;;7399503;19;20239;-76
2022/03/15 06:35:38;;;;;;;9.30;4.65;;;8.90;62.40;;;;;;7396012;19;20207;-78
2022/03/15 06:38:10;;;;;;;4.35;2.85;;;9.00;61.60;;;;;;7374765;19;20131;-76
2022/03/15 06:40:41;;;;;;;5.80;2.90;;;9.00;61.80;;;;;;7374400;19;20182;-76
2022/03/15 06:43:12;;;;;;;6.65;3.75;;;9.00;61.70;;;;;;7378749;19;20631;-75
2022/03/15 06:45:42;;;;;;;4.40;2.93;;;8.90;61.70;;;;;;7378786;19;20139;-75
2022/03/15 06:48:11;;;;;;;9.75;3.70;;;8.90;62.90;;;;;;7377661;19;21317;-76
2022/03/15 06:50:41;;;;;;;6.43;3.57;;;8.90;61.80;;;;;;7377803;19;20144;-72
2022/03/15 06:53:13;;;;;;;7.97;4.10;;;8.90;61.70;;;;;;7381991;19;20383;-72
2022/03/15 06:55:43;;;;;;;6.35;3.55;;;9.00;61.00;;;;;;7379307;19;20416;-72
2022/03/15 06:58:12;;;;;;;5.95;3.90;;;9.20;60.40;;;;;;7379664;19;20160;-72
2022/03/15 07:00:42;;;;;;;5.70;3.63;;;9.20;60.20;;;;;;7376317;19;20428;-72
2022/03/15 07:03:14;;;;;;;8.18;4.05;;;9.30;60.20;;;;;;7375153;19;20376;-72
2022/03/15 07:05:44;;;;;;;7.00;3.90;;;9.40;60.40;;;;;;7374504;19;20139;-72
2022/03/15 07:08:16;;;;;;;8.40;4.23;;;9.50;60.50;;;;;;7376075;19;20802;-72
2022/03/15 07:10:46;;;;;;;5.97;4.32;;;9.60;59.60;;;;;;7380049;19;20375;-72
2022/03/15 07:13:15;;;;;;;7.63;3.77;;;9.80;59.30;;;;;;7379064;19;20169;-72
2022/03/15 07:15:45;;;;;;;5.97;4.13;;;9.90;59.10;;;;;;7378696;19;20376;-72
2022/03/15 07:18:23;;;;;;;7.13;3.47;;;10.10;58.10;;;;;;7377812;19;20416;-72
2022/03/15 07:20:52;;;;;;;4.03;3.40;;;10.20;57.50;;;;;;7379853;19;21032;-75
2022/03/15 07:23:24;;;;;;;8.10;4.40;;;10.40;57.10;;;;;;7378236;19;20784;-76
2022/03/15 07:25:54;;;;;;;6.67;3.33;;;10.40;56.70;;;;;;7379950;19;20435;-77
2022/03/15 07:28:23;;;;;;;8.13;3.87;;;10.50;55.90;;;;;;7378818;19;20416;-77
2022/03/15 07:30:53;;;;;;;9.50;3.27;;;10.50;55.70;;;;;;7378215;19;20416;-77
2022/03/15 07:33:22;;;;;;;9.33;3.93;;;10.60;55.20;;;;;;7380383;19;20419;-77
2022/03/15 07:35:54;;;;;;;6.37;3.90;;;10.60;55.00;;;;;;7378993;19;20412;-76
2022/03/15 07:38:26;;;;;;;3.33;2.70;;;10.60;54.50;;;;;;7379212;19;20393;-76
2022/03/15 07:41:01;;;;;;;7.37;3.30;;;10.70;54.50;;;;;;7375096;19;20455;-77
2022/03/15 07:43:31;;;;;;;4.60;3.93;;;10.70;54.90;;;;;;7377360;19;20388;-76
2022/03/15 07:46:03;;;;;;;7.03;3.83;;;10.80;54.40;;;;;;7381976;19;20954;-76
2022/03/15 07:48:32;;;;;;;5.00;3.33;;;10.90;54.60;;;;;;7382175;19;20381;-76
2022/03/15 07:51:02;;;;;;;5.27;3.30;;;10.90;54.40;;;;;;7383642;19;20917;-76
2022/03/15 07:53:34;;;;;;;3.97;2.80;;;10.90;54.40;;;;;;7382451;19;20400;-76
2022/03/15 07:56:04;;;;;;;5.40;3.50;;;10.90;54.50;;;;;;7381688;19;20467;-76
2022/03/15 07:58:33;;;;;;;6.27;3.80;;;10.90;54.60;;;;;;7383005;19;20416;-76
2022/03/15 08:01:04;;;;;;;7.20;3.90;;;11.00;54.20;;;;;;7384006;19;20415;-76
2022/03/15 08:03:33;;;;;;;13.17;3.33;;;11.10;53.80;;;;;;7383390;19;20376;-76
2022/03/15 08:06:03;;;;;;;8.07;3.40;;;11.20;53.60;;;;;;7384698;19;20383;-76
2022/03/15 08:08:37;;;;;;;6.10;3.13;;;11.20;53.20;;;;;;7384402;19;20505;-76
2022/03/15 08:11:07;;;;;;;4.40;3.00;;;11.30;53.10;;;;;;7386855;19;20379;-76
2022/03/15 08:13:38;;;;;;;4.30;3.53;;;11.40;52.80;;;;;;7387836;19;20412;-74
2022/03/15 08:16:10;;;;;;;6.60;3.00;;;11.50;52.70;;;;;;7383612;19;20404;-75
2022/03/15 08:18:40;;;;;;;25.23;5.20;;;11.70;52.40;;;;;;7381025;19;20424;-76
2022/03/15 08:21:10;;;;;;;7.70;4.00;;;11.70;52.00;;;;;;7381324;19;20463;-71
2022/03/15 08:23:44;;;;;;;7.70;3.80;;;11.80;51.70;;;;;;7377755;19;20419;-70
2022/03/15 08:26:14;;;;;;;6.90;3.27;;;11.90;50.80;;;;;;7378792;19;20416;-71
2022/03/15 08:28:45;;;;;;;3.03;2.57;;;11.90;50.70;;;;;;7383909;19;20400;-71
2022/03/15 08:31:15;;;;;;;3.27;3.00;;;12.10;50.20;;;;;;7385372;19;20376;-72
2022/03/15 08:33:45;;;;;;;5.20;2.77;;;12.20;49.90;;;;;;7380219;19;20409;-71
2022/03/15 08:36:14;;;;;;;5.33;2.80;;;12.30;49.30;;;;;;7384059;19;20376;-71
2022/03/15 08:38:49;;;;;;;3.13;2.83;;;12.40;49.20;;;;;;7381463;19;20400;-72
2022/03/15 08:41:19;;;;;;;3.80;2.50;;;12.50;48.90;;;;;;7380190;19;20408;-72
2022/03/15 08:43:49;;;;;;;6.40;2.83;;;12.50;48.90;;;;;;7386736;19;20423;-71
2022/03/15 08:46:18;;;;;;;4.70;2.90;;;12.50;48.70;;;;;;7384994;19;20427;-72
2022/03/15 08:48:48;;;;;;;4.47;2.40;;;12.60;48.80;;;;;;7381366;19;20412;-72
2022/03/15 08:51:17;;;;;;;6.23;2.70;;;12.60;48.90;;;;;;7379493;19;20391;-72
2022/03/15 08:53:49;;;;;;;5.30;2.27;;;12.70;48.70;;;;;;7380005;19;20408;-72
2022/03/15 08:56:19;;;;;;;6.30;2.23;;;12.70;48.50;;;;;;7378598;19;20491;-70
2022/03/15 08:58:49;;;;;;;16.63;4.43;;;12.70;48.80;;;;;;7409523;19;20816;-72
2022/03/15 09:01:18;;;;;;;3.93;2.27;;;12.80;48.70;;;;;;7409445;19;20417;-73
2022/03/15 09:03:48;;;;;;;6.53;2.70;;;12.70;48.80;;;;;;7412486;19;20945;-72
2022/03/15 09:06:17;;;;;;;4.70;2.80;;;12.60;49.00;;;;;;7413774;19;20398;-72
2022/03/15 09:08:49;;;;;;;4.40;2.13;;;12.60;49.20;;;;;;7414534;19;20373;-72
2022/03/15 09:11:19;;;;;;;10.70;2.90;;;12.60;49.40;;;;;;7412960;19;21454;-71
2022/03/15 09:13:48;;;;;;;5.30;2.37;;;12.70;49.60;;;;;;7414621;19;20391;-73
2022/03/15 09:16:18;;;;;;;3.70;2.23;;;12.70;49.90;;;;;;7409558;19;20396;-72
2022/03/15 09:18:47;;;;;;;4.20;2.30;;;12.70;50.60;;;;;;7408341;19;20376;-72
2022/03/15 09:21:18;;;;;;;3.27;2.20;;;12.60;51.90;;;;;;7414522;19;20388;-74
2022/03/15 09:23:51;;;;;;;3.03;2.20;;;12.50;53.20;;;;;;7417713;19;20380;-74
2022/03/15 09:26:20;;;;;;;6.23;2.50;;;12.50;54.70;;;;;;7415915;19;20442;-74
2022/03/15 09:28:50;;;;;;;3.00;2.30;;;12.50;55.20;;;;;;7417112;19;20802;-75
2022/03/15 09:31:23;;;;;;;5.00;2.50;;;12.40;56.50;;;;;;7416186;19;20388;-74
2022/03/15 09:33:54;;;;;;;4.27;2.40;;;12.20;57.20;;;;;;7414961;19;20499;-76
2022/03/15 09:36:26;;;;;;;3.50;2.43;;;12.40;57.80;;;;;;7416009;19;20412;-76
2022/03/15 09:38:59;;;;;;;3.17;2.10;;;12.40;58.20;;;;;;7418100;19;20385;-74
2022/03/15 09:41:29;;;;;;;4.03;2.30;;;12.50;58.70;;;;;;7421976;19;20408;-74
2022/03/15 09:44:02;;;;;;;2.53;2.10;;;12.60;58.80;;;;;;7424058;19;20392;-74
2022/03/15 09:46:34;;;;;;;3.30;2.70;;;12.60;58.70;;;;;;7416826;19;20468;-75
2022/03/15 09:49:04;;;;;;;4.43;2.10;;;12.70;59.10;;;;;;7417208;19;20424;-75
2022/03/15 09:51:35;;;;;;;3.60;1.83;;;12.70;59.40;;;;;;7410444;19;20396;-76
2022/03/15 09:54:08;;;;;;;3.50;2.33;;;12.60;59.60;;;;;;7413598;19;20385;-75
2022/03/15 09:56:41;;;;;;;2.63;2.30;;;12.70;60.00;;;;;;7416536;19;20397;-75
2022/03/15 09:59:18;;;;;;;4.03;2.60;;;12.70;60.00;;;;;;7418079;19;20401;-75
2022/03/15 10:01:52;;;;;;;3.27;2.17;;;12.70;60.20;;;;;;7395340;19;20376;-72
2022/03/15 10:04:23;;;;;;;3.30;2.27;;;12.70;60.00;;;;;;7392087;19;20764;-71
2022/03/15 10:06:56;;;;;;;2.80;2.30;;;12.70;60.50;;;;;;7389700;19;20410;-71
2022/03/15 10:12:13;;;;;;;8.10;3.13;;;12.50;61.60;;;;;;7389761;19;20380;-72
2022/03/15 10:14:44;;;;;;;3.90;2.90;;;12.50;61.60;;;;;;7384556;19;20956;-72
2022/03/15 10:17:14;;;;;;;9.33;2.40;;;12.50;62.20;;;;;;7384407;19;20447;-72
2022/03/15 10:19:56;;;;;;;2.90;2.20;;;12.50;62.00;;;;;;7387201;19;20411;-72
2022/03/15 10:22:44;;;;;;;2.60;2.00;;;12.30;60.90;;;;;;7381212;19;20909;-73
2022/03/15 10:42:42;;;;;;;3.70;3.13;;;12.50;62.00;;;;;;7370914;19;20487;-72
2022/03/15 10:45:22;;;;;;;4.57;3.07;;;12.40;62.80;;;;;;7356889;19;21608;-72
2022/03/15 10:47:56;;;;;;;3.43;2.50;;;12.40;62.90;;;;;;7380892;19;20448;-72
2022/03/15 10:50:30;;;;;;;6.13;3.23;;;12.50;63.10;;;;;;7382740;19;20464;-72
2022/03/15 10:53:00;;;;;;;5.17;4.17;;;12.40;63.30;;;;;;7383486;19;20392;-73
2022/03/15 10:55:45;;;;;;;5.30;3.43;;;12.50;64.10;;;;;;7383693;19;20400;-73
2022/03/15 10:58:34;;;;;;;6.60;3.33;;;12.40;65.20;;;;;;7382792;19;20387;-72
2022/03/15 11:01:22;;;;;;;4.30;3.20;;;12.30;64.90;;;;;;7380418;19;21064;-73
2022/03/15 11:04:10;;;;;;;4.23;2.77;;;12.20;65.90;;;;;;7383000;19;20408;-72
2022/03/15 11:06:50;;;;;;;3.70;2.83;;;12.20;65.80;;;;;;7341473;19;20486;-73
2022/03/15 11:09:27;;;;;;;3.67;2.87;;;12.10;66.80;;;;;;7378643;19;20416;-73
2022/03/15 11:12:02;;;;;;;5.73;3.20;;;12.10;65.70;;;;;;7377740;19;20408;-73
2022/03/15 11:14:39;;;;;;;3.37;2.80;;;12.10;66.90;;;;;;7379138;19;20396;-73
2022/03/15 11:17:11;;;;;;;7.40;3.83;;;12.10;67.70;;;;;;7380186;19;20459;-72
2022/03/15 11:19:45;;;;;;;4.23;3.60;;;12.00;68.80;;;;;;7383146;19;20404;-73
2022/03/15 11:22:22;;;;;;;6.00;3.43;;;12.00;70.20;;;;;;7378582;19;20392;-72
2022/03/15 11:25:02;;;;;;;7.87;3.43;;;12.00;71.00;;;;;;7380111;19;20384;-73
2022/03/15 11:27:39;;;;;;;4.53;3.87;;;12.00;70.70;;;;;;7380860;19;20400;-72
2022/03/15 11:30:12;;;;;;;5.37;4.10;;;12.10;71.20;;;;;;7376490;19;20766;-72
2022/03/15 11:32:44;;;;;;;5.27;3.90;;;12.10;71.60;;;;;;7378062;19;21009;-72
2022/03/15 11:35:18;;;;;;;4.83;4.00;;;12.10;71.50;;;;;;7378585;19;20360;-72
2022/03/15 11:37:52;;;;;;;6.70;4.10;;;12.10;71.30;;;;;;7382490;19;20415;-72
2022/03/15 11:40:22;;;;;;;6.00;4.20;;;11.90;71.60;;;;;;7381415;19;20503;-75
2022/03/15 11:42:56;;;;;;;9.90;5.37;;;11.80;72.50;;;;;;7379999;19;20444;-75
2022/03/15 11:45:33;;;;;;;8.77;5.87;;;11.80;72.90;;;;;;7381957;19;20360;-75
2022/03/15 11:48:14;;;;;;;6.90;5.53;;;11.70;73.20;;;;;;7376535;19;20434;-74
2022/03/15 11:50:57;;;;;;;8.77;6.30;;;11.60;72.90;;;;;;7379436;19;20412;-75
2022/03/15 11:53:42;;;;;;;8.73;6.30;;;11.40;73.70;;;;;;7381686;19;20404;-76
2022/03/15 11:56:24;;;;;;;8.20;6.27;;;11.40;74.70;;;;;;7385055;19;20516;-75
2022/03/15 11:58:58;;;;;;;7.90;6.20;;;11.50;75.60;;;;;;7384016;19;20398;-75
2022/03/15 12:01:28;;;;;;;9.37;5.57;;;11.60;75.90;;;;;;7378960;19;20384;-76
2022/03/15 12:04:00;;;;;;;9.07;5.70;;;11.60;75.80;;;;;;7372766;19;20420;-75
2022/03/15 12:06:31;;;;;;;7.30;4.93;;;11.60;75.80;;;;;;7379826;19;20499;-75
2022/03/15 12:09:12;;;;;;;13.53;5.43;;;11.60;75.70;;;;;;7381806;19;20414;-75
2022/03/15 12:11:45;;;;;;;8.53;5.23;;;11.70;75.10;;;;;;7380782;19;21025;-72
2022/03/15 12:14:19;;;;;;;5.80;4.90;;;11.70;75.30;;;;;;7380314;19;20412;-72
2022/03/15 12:16:51;;;;;;;10.37;5.93;;;11.70;74.20;;;;;;7376188;19;20408;-72
2022/03/15 12:19:29;;;;;;;10.77;5.30;;;11.70;74.00;;;;;;7376524;19;20408;-72
2022/03/15 12:22:02;;;;;;;5.33;4.80;;;11.80;74.40;;;;;;7372752;19;20415;-72
2022/03/15 12:24:36;;;;;;;7.90;5.40;;;12.00;73.70;;;;;;7372997;19;20376;-72
2022/03/15 12:27:08;;;;;;;6.53;4.17;;;12.10;72.60;;;;;;7375098;19;20379;-73
2022/03/15 12:29:39;;;;;;;5.47;3.93;;;12.10;70.50;;;;;;7377257;19;20966;-71
2022/03/15 12:32:14;;;;;;;6.47;4.77;;;11.90;70.80;;;;;;7379062;19;20381;-71
2022/03/15 12:34:45;;;;;;;7.40;4.30;;;11.90;70.80;;;;;;7376528;19;20368;-72
2022/03/15 12:37:15;;;;;;;6.17;4.30;;;11.80;69.80;;;;;;7377104;19;20871;-72
2022/03/15 12:39:57;;;;;;;8.57;4.63;;;11.70;70.20;;;;;;7375554;19;20455;-72
2022/03/15 12:42:27;;;;;;;5.03;4.53;;;11.70;71.20;;;;;;7374851;19;20432;-72
2022/03/15 12:45:06;;;;;;;5.70;3.93;;;11.60;71.40;;;;;;7380006;19;20760;-72
2022/03/15 12:47:41;;;;;;;4.80;4.07;;;11.50;72.10;;;;;;7376726;19;20435;-72
2022/03/15 12:50:21;;;;;;;4.73;4.00;;;11.50;71.50;;;;;;7376587;19;20422;-72
2022/03/15 12:52:52;;;;;;;6.30;4.10;;;11.60;71.60;;;;;;7374453;19;20376;-72
2022/03/15 12:55:27;;;;;;;7.80;4.97;;;11.60;71.20;;;;;;7377123;19;20424;-72
2022/03/15 12:58:03;;;;;;;6.80;5.10;;;11.60;70.10;;;;;;7376782;19;20371;-72
2022/03/15 13:00:35;;;;;;;6.70;5.40;;;11.40;70.80;;;;;;7365611;19;20392;-77
2022/03/15 13:03:06;;;;;;;7.13;4.80;;;11.40;71.10;;;;;;7375774;19;20979;-77
2022/03/15 13:05:35;;;;;;;5.20;4.70;;;11.40;71.90;;;;;;7377691;19;20769;-81
2022/03/15 13:08:09;;;;;;;7.70;5.33;;;11.30;72.50;;;;;;7380589;19;20765;-77
2022/03/15 13:10:46;;;;;;;6.73;5.23;;;11.30;73.30;;;;;;7372930;19;20396;-78
2022/03/15 13:13:27;;;;;;;7.83;4.70;;;11.30;73.20;;;;;;7381049;19;20441;-77
2022/03/15 13:16:01;;;;;;;7.87;5.50;;;11.30;73.90;;;;;;7372785;19;20391;-76
2022/03/15 13:18:33;;;;;;;8.80;4.37;;;11.40;73.60;;;;;;7340722;19;20423;-78
2022/03/15 13:21:05;;;;;;;7.40;5.50;;;11.60;72.70;;;;;;7369187;19;20417;-77
2022/03/15 13:23:37;;;;;;;6.80;4.60;;;11.80;72.70;;;;;;7368913;19;20393;-77
2022/03/15 13:26:12;;;;;;;5.57;4.97;;;11.80;72.20;;;;;;7373254;19;20440;-76
2022/03/15 13:28:49;;;;;;;7.70;5.30;;;11.80;71.80;;;;;;7372919;19;20447;-75
2022/03/15 13:31:21;;;;;;;6.30;4.80;;;11.80;72.20;;;;;;7378805;19;20408;-77
2022/03/15 13:33:53;;;;;;;6.20;4.77;;;11.90;72.20;;;;;;7373851;19;20408;-77
2022/03/15 13:36:24;;;;;;;7.93;5.00;;;12.00;72.60;;;;;;7377147;19;20459;-76
2022/03/15 13:38:55;;;;;;;6.20;4.70;;;12.00;72.30;;;;;;7381371;19;20427;-77